Time;durP1;ratioP1;P1;durP2;ratioP2;P2;SDS_P1;SDS_P2;PMS_P1;PMS_P2;Temp;Humidity;BMP_temperature;BMP_pressure;BME280_temperature;BME280_humidity;BME280_pressure;Samples;Min_cycle;Max_cycle;Signal;HPM_P1;HPM_P2
2022/08/31 00:05:46;;;;;;;5.50;2.53;;;;;;;18.71;71.07;101978.00;5033797;28;20415;-53
2022/08/31 00:08:14;;;;;;;7.20;2.40;;;;;;;18.67;71.05;101977.78;5034526;28;20444;-47
2022/08/31 00:10:44;;;;;;;6.05;2.15;;;;;;;18.58;71.47;101982.28;5018215;28;20041;-47
2022/08/31 00:13:13;;;;;;;3.80;2.20;;;;;;;18.55;71.62;101979.31;5032329;28;20045;-46
2022/08/31 00:15:42;;;;;;;3.15;2.22;;;;;;;18.61;71.50;101991.94;5033511;28;20037;-51
2022/08/31 00:18:10;;;;;;;5.35;2.25;;;;;;;18.56;71.74;101981.75;5033856;28;20045;-48
2022/08/31 00:20:38;;;;;;;3.38;2.25;;;;;;;18.47;72.04;101980.75;5043781;28;20040;-48
2022/08/31 00:23:10;;;;;;;4.07;2.40;;;;;;;18.34;72.49;101987.00;5017502;28;20042;-49
2022/08/31 00:25:39;;;;;;;6.70;2.30;;;;;;;18.35;72.65;101981.19;5034391;28;20497;-50
2022/08/31 00:28:07;;;;;;;6.43;2.15;;;;;;;18.38;72.67;101988.06;4999018;28;20042;-49
2022/08/31 00:30:36;;;;;;;4.20;2.35;;;;;;;18.44;72.25;101978.59;5008408;28;20041;-51
2022/08/31 00:33:04;;;;;;;6.28;2.30;;;;;;;18.46;72.08;101990.16;5016952;28;20107;-49
2022/08/31 00:35:35;;;;;;;4.97;2.47;;;;;;;18.37;72.56;101986.41;5016439;28;20037;-50
2022/08/31 00:38:04;;;;;;;3.72;2.22;;;;;;;18.38;72.46;101986.13;5000003;28;20041;-50
2022/08/31 00:40:33;;;;;;;7.10;2.20;;;;;;;18.39;72.40;101989.69;5017284;28;20038;-49
2022/08/31 00:43:31;;;;;;;3.95;2.28;;;;;;;18.38;72.36;101988.88;5017975;28;20050;-49
2022/08/31 00:45:59;;;;;;;4.28;2.28;;;;;;;18.32;72.73;101979.00;5033628;28;20057;-50
2022/08/31 00:48:27;;;;;;;4.22;2.28;;;;;;;18.19;73.33;101979.69;5033190;28;20041;-51
2022/08/31 00:50:56;;;;;;;4.05;1.98;;;;;;;18.14;73.68;101977.81;5016279;28;20045;-49
2022/08/31 00:53:24;;;;;;;3.55;2.05;;;;;;;18.23;73.28;101977.97;5016666;28;20462;-50
2022/08/31 00:55:52;;;;;;;5.40;2.28;;;;;;;18.16;73.57;101980.25;5033398;28;20049;-50
2022/08/31 00:58:19;;;;;;;5.03;2.70;;;;;;;18.23;73.38;101975.22;5013625;28;20037;-47
2022/08/31 01:00:47;;;;;;;5.20;2.08;;;;;;;18.10;73.69;101977.56;5034867;28;20041;-51
2022/08/31 01:03:17;;;;;;;6.13;2.45;;;;;;;18.09;73.93;101978.69;5033734;28;20088;-48
2022/08/31 01:05:45;;;;;;;3.50;2.20;;;;;;;18.01;74.41;101979.28;5000396;28;20045;-49
2022/08/31 01:08:13;;;;;;;3.90;2.03;;;;;;;17.96;74.49;101986.78;5032816;28;20037;-50
2022/08/31 01:10:43;;;;;;;4.72;2.50;;;;;;;17.90;74.79;101982.47;5031102;28;20038;-50
2022/08/31 01:13:12;;;;;;;4.05;2.28;;;;;;;17.92;74.72;101980.22;5015999;28;20045;-50
2022/08/31 01:15:45;;;;;;;3.55;2.00;;;;;;;17.96;74.59;101970.25;5016358;28;20037;-49
2022/08/31 01:18:17;;;;;;;2.75;1.92;;;;;;;17.98;74.64;101968.84;5015423;28;20042;-50
2022/08/31 01:21:24;;;;;;;3.03;2.20;;;;;;;17.95;74.60;101966.69;4998541;28;20408;-50
2022/08/31 01:23:54;;;;;;;2.25;1.95;;;;;;;18.00;74.50;101971.31;5033388;28;20386;-48
2022/08/31 01:26:24;;;;;;;5.43;2.40;;;;;;;17.92;74.62;101969.19;5016205;28;20074;-48
2022/08/31 01:28:56;;;;;;;4.40;2.53;;;;;;;17.84;75.10;101974.19;5007884;28;20046;-48
2022/08/31 01:31:27;;;;;;;3.63;2.03;;;;;;;17.77;75.51;101973.69;5013719;28;20041;-49
2022/08/31 01:33:56;;;;;;;9.43;2.63;;;;;;;17.79;75.36;101971.47;5015712;28;20037;-50
2022/08/31 01:36:25;;;;;;;3.63;2.13;;;;;;;17.86;75.21;101983.00;5015929;28;20049;-50
2022/08/31 01:38:53;;;;;;;5.85;2.20;;;;;;;17.82;75.21;101979.22;5014503;28;20041;-53
2022/08/31 01:41:21;;;;;;;5.70;2.10;;;;;;;17.83;75.18;101971.75;5032341;28;20060;-50
2022/08/31 01:43:51;;;;;;;3.42;1.88;;;;;;;17.83;75.25;101978.09;5015603;28;20044;-50
2022/08/31 01:46:19;;;;;;;4.35;2.33;;;;;;;17.83;75.23;101980.84;5020823;28;20045;-51
2022/08/31 01:48:47;;;;;;;3.17;1.73;;;;;;;17.83;75.17;101983.59;5031730;28;20083;-50
2022/08/31 01:51:18;;;;;;;3.28;2.22;;;;;;;17.86;74.98;101985.78;5014977;28;20098;-50
2022/08/31 01:53:49;;;;;;;3.50;2.20;;;;;;;17.82;75.12;101979.22;5033271;28;20049;-50
2022/08/31 01:56:21;;;;;;;5.28;2.30;;;;;;;17.86;74.72;101983.00;5040241;28;20029;-49
2022/08/31 01:58:49;;;;;;;6.15;2.80;;;;;;;17.85;74.79;101975.88;5019422;28;20033;-46
2022/08/31 02:01:47;;;;;;;4.57;2.55;;;;;;;17.78;74.89;101975.34;5032416;28;20052;-51
2022/08/31 02:04:18;;;;;;;5.03;2.50;;;;;;;17.75;75.33;101978.69;5015715;28;20033;-50
2022/08/31 02:06:50;;;;;;;5.38;2.85;;;;;;;17.61;75.87;101985.97;5015320;28;20484;-55
2022/08/31 02:09:19;;;;;;;4.95;2.03;;;;;;;17.67;75.54;101987.56;5019696;28;20053;-50
2022/08/31 02:11:47;;;;;;;7.70;2.40;;;;;;;17.60;75.73;101985.13;5015530;28;20056;-49
2022/08/31 02:14:16;;;;;;;4.45;2.13;;;;;;;17.60;75.71;101984.28;5015026;28;20056;-52
2022/08/31 02:16:45;;;;;;;5.22;2.17;;;;;;;17.52;75.93;101980.22;5033083;28;20064;-50
2022/08/31 02:19:13;;;;;;;6.22;2.60;;;;;;;17.52;75.83;101976.66;5023242;28;20167;-50
2022/08/31 02:21:41;;;;;;;6.80;2.35;;;;;;;17.48;76.25;101978.31;5034443;28;20096;-48
2022/08/31 02:24:11;;;;;;;5.10;2.42;;;;;;;17.46;76.01;101984.97;5025599;28;20053;-52
2022/08/31 02:26:39;;;;;;;4.22;2.58;;;;;;;17.40;76.15;101977.81;5015725;28;20057;-49
2022/08/31 02:29:07;;;;;;;4.45;2.10;;;;;;;17.27;77.05;101981.22;4999676;28;20037;-49
2022/08/31 02:31:35;;;;;;;4.13;2.30;;;;;;;17.39;76.28;101973.44;5042800;28;20045;-49
2022/08/31 02:34:04;;;;;;;2.38;1.90;;;;;;;17.28;76.63;101982.03;5027929;28;20068;-47
2022/08/31 02:36:32;;;;;;;6.47;2.08;;;;;;;17.28;76.49;101976.53;5016265;28;20045;-46
2022/08/31 02:39:04;;;;;;;4.25;2.13;;;;;;;17.33;76.24;101984.75;5002101;28;20041;-48
2022/08/31 02:41:33;;;;;;;4.60;2.50;;;;;;;17.23;76.24;101982.91;5018149;28;20036;-54
2022/08/31 02:44:01;;;;;;;5.00;2.42;;;;;;;17.22;76.21;101984.00;5032781;28;20053;-47
2022/08/31 02:46:29;;;;;;;2.88;2.25;;;;;;;17.18;76.44;101986.50;5019725;28;20033;-48
2022/08/31 02:49:16;;;;;;;5.47;2.40;;;;;;;17.13;76.23;101978.28;5032255;28;20037;-48
2022/08/31 02:51:44;;;;;;;7.28;2.42;;;;;;;17.16;76.32;101985.16;5013496;28;20056;-48
2022/08/31 02:54:13;;;;;;;3.95;2.00;;;;;;;17.09;76.60;101979.94;4998485;28;20041;-48
2022/08/31 02:56:41;;;;;;;4.65;2.20;;;;;;;17.19;75.99;101984.56;5015054;28;20522;-46
2022/08/31 02:59:09;;;;;;;5.15;2.10;;;;;;;17.34;75.35;101987.25;5014807;28;20044;-47
2022/08/31 03:01:38;;;;;;;4.18;2.20;;;;;;;17.21;75.22;101987.88;5000405;28;20060;-46
2022/08/31 03:04:06;;;;;;;4.53;2.28;;;;;;;17.13;75.49;101986.53;4997113;28;20492;-46
2022/08/31 03:06:34;;;;;;;3.67;2.22;;;;;;;17.17;75.60;101987.63;4993714;28;20408;-46
2022/08/31 03:09:02;;;;;;;2.88;2.17;;;;;;;17.11;75.69;101983.25;5012134;28;20042;-46
2022/08/31 03:11:30;;;;;;;5.80;2.35;;;;;;;17.15;75.04;101977.97;5008188;28;20041;-47
2022/08/31 03:13:58;;;;;;;9.60;2.22;;;;;;;17.14;74.76;101982.66;5007133;28;20049;-48
2022/08/31 03:16:26;;;;;;;4.53;2.33;;;;;;;16.92;75.81;101979.47;5003397;28;20034;-48
2022/08/31 03:18:54;;;;;;;4.97;2.53;;;;;;;16.85;75.87;101976.22;4998991;28;20049;-47
2022/08/31 03:21:22;;;;;;;4.93;2.42;;;;;;;16.77;76.22;101981.16;5008507;28;20493;-48
2022/08/31 03:23:49;;;;;;;4.47;2.45;;;;;;;16.76;76.19;101981.44;4983584;28;20065;-47
2022/08/31 03:26:17;;;;;;;4.22;2.40;;;;;;;16.78;76.14;101982.84;4995796;28;20038;-47
2022/08/31 03:28:45;;;;;;;4.93;2.25;;;;;;;16.88;75.84;101987.47;5015820;28;20088;-47
2022/08/31 03:31:31;;;;;;;3.03;2.00;;;;;;;16.91;74.86;101989.69;5015801;28;20059;-47
2022/08/31 03:34:00;;;;;;;4.82;2.10;;;;;;;16.83;74.76;101982.00;5001330;28;20056;-47
2022/08/31 03:36:27;;;;;;;3.30;1.83;;;;;;;16.74;75.22;101972.63;5013903;28;20497;-49
2022/08/31 03:38:55;;;;;;;4.35;2.13;;;;;;;16.70;74.54;101980.63;4996720;28;20091;-51
2022/08/31 03:41:24;;;;;;;4.47;2.33;;;;;;;16.71;74.78;101978.72;4998207;28;20518;-51
2022/08/31 03:43:52;;;;;;;3.67;2.17;;;;;;;16.73;74.21;101973.75;4998973;28;20056;-47
2022/08/31 03:46:21;;;;;;;4.65;2.38;;;;;;;16.72;73.80;101983.13;4997562;28;20053;-47
2022/08/31 03:48:50;;;;;;;4.32;2.13;;;;;;;16.77;73.47;101988.59;4981985;28;20049;-48
2022/08/31 03:51:18;;;;;;;5.13;2.10;;;;;;;16.66;73.55;101987.00;4998068;28;20050;-47
2022/08/31 03:53:46;;;;;;;3.45;2.20;;;;;;;16.63;73.49;101982.06;5003046;28;20050;-51
2022/08/31 03:56:18;;;;;;;3.05;1.88;;;;;;;16.63;72.90;101982.88;4997047;28;20038;-50
2022/08/31 03:58:49;;;;;;;2.85;2.20;;;;;;;16.63;72.78;101980.13;4997518;28;20045;-49
2022/08/31 04:01:35;;;;;;;5.35;2.50;;;;;;;16.58;72.60;101983.72;5029761;28;20054;-53
2022/08/31 04:04:22;;;;;;;5.03;2.30;;;;;;;16.60;73.13;101983.44;5036804;28;20515;-50
2022/08/31 04:07:28;;;;;;;5.93;2.00;;;;;;;16.64;72.64;101986.44;4949331;28;20529;-50
2022/08/31 04:10:27;;;;;;;2.65;1.98;;;;;;;16.60;72.31;101983.44;4953222;29;20062;-52
2022/08/31 04:13:13;;;;;;;3.70;1.88;;;;;;;16.57;72.47;101984.81;5010344;28;20045;-51
2022/08/31 04:16:01;;;;;;;3.60;2.28;;;;;;;16.53;72.38;101994.72;4972617;28;20065;-50
2022/08/31 04:18:49;;;;;;;4.13;1.70;;;;;;;16.53;72.52;101988.41;5033149;28;20041;-51
2022/08/31 04:21:24;;;;;;;2.40;1.90;;;;;;;16.44;72.99;101996.41;5029353;28;20092;-50
2022/08/31 04:23:53;;;;;;;3.95;2.42;;;;;;;16.47;72.09;101989.50;5005118;28;20037;-52
2022/08/31 04:26:27;;;;;;;5.20;2.10;;;;;;;16.42;72.27;101993.09;5015117;28;20048;-48
2022/08/31 04:28:55;;;;;;;3.67;2.00;;;;;;;16.35;71.95;101992.56;5013098;28;20096;-50
2022/08/31 04:31:24;;;;;;;3.28;2.10;;;;;;;16.29;72.63;101990.94;5034225;28;20391;-50
2022/08/31 04:33:52;;;;;;;2.33;1.83;;;;;;;16.21;72.23;101994.25;5022152;28;20041;-50
2022/08/31 04:36:22;;;;;;;3.63;2.00;;;;;;;16.23;71.88;101994.78;4979920;28;20057;-50
2022/08/31 04:38:55;;;;;;;5.07;2.20;;;;;;;16.21;71.47;102002.50;5014832;28;20041;-51
2022/08/31 04:41:25;;;;;;;3.80;2.08;;;;;;;16.19;71.46;102011.84;5034101;28;20045;-52
2022/08/31 04:43:56;;;;;;;4.15;2.40;;;;;;;16.18;71.51;101999.19;5020605;28;20056;-47
2022/08/31 04:46:25;;;;;;;3.25;1.92;;;;;;;16.23;71.13;102005.78;5015684;28;20045;-50
2022/08/31 04:48:55;;;;;;;4.03;2.15;;;;;;;16.21;70.51;102003.34;5016266;28;20049;-49
2022/08/31 04:51:34;;;;;;;4.15;2.28;;;;;;;16.11;70.41;102001.41;5034212;28;20037;-48
2022/08/31 04:54:04;;;;;;;7.72;2.20;;;;;;;16.02;70.55;102002.22;5023230;28;20045;-52
2022/08/31 04:56:34;;;;;;;2.50;1.88;;;;;;;15.94;70.31;102004.44;5015555;28;20424;-51
2022/08/31 04:59:05;;;;;;;4.85;2.00;;;;;;;15.98;70.77;101999.22;4998364;28;20048;-51
2022/08/31 05:01:41;;;;;;;5.35;2.30;;;;;;;16.02;69.81;102014.06;5015674;28;20055;-50
2022/08/31 05:04:32;;;;;;;5.83;2.00;;;;;;;15.91;69.74;102006.91;5019764;28;20042;-51
2022/08/31 05:07:00;;;;;;;3.08;1.75;;;;;;;15.86;69.88;102007.75;5014905;28;20092;-49
2022/08/31 05:09:28;;;;;;;2.90;1.80;;;;;;;15.89;69.95;102009.13;5015791;28;20037;-49
2022/08/31 05:11:56;;;;;;;4.63;1.95;;;;;;;15.93;69.33;102010.22;5010294;28;20526;-50
2022/08/31 05:14:25;;;;;;;3.53;1.70;;;;;;;15.88;69.56;102013.78;5004371;28;20057;-48
2022/08/31 05:17:00;;;;;;;3.88;2.22;;;;;;;15.92;69.37;102014.91;5009089;28;20052;-48
2022/08/31 05:19:30;;;;;;;2.92;1.60;;;;;;;15.93;68.69;102019.28;5018769;28;20045;-49
2022/08/31 05:21:58;;;;;;;6.97;2.15;;;;;;;15.82;68.83;102014.06;5031799;28;20229;-48
2022/08/31 05:24:29;;;;;;;3.13;1.95;;;;;;;15.81;69.10;102016.00;5029738;28;20042;-49
2022/08/31 05:26:56;;;;;;;3.35;2.05;;;;;;;15.89;68.91;102015.44;5012529;28;20373;-49
2022/08/31 05:29:26;;;;;;;3.13;1.92;;;;;;;15.91;68.72;102015.16;5015126;28;20052;-48
2022/08/31 05:32:14;;;;;;;3.63;1.80;;;;;;;15.75;68.76;102023.41;4991009;28;20045;-50
2022/08/31 05:34:41;;;;;;;4.10;1.98;;;;;;;15.82;68.91;102017.63;5023395;28;20049;-48
2022/08/31 05:37:09;;;;;;;4.30;2.10;;;;;;;15.81;68.18;102021.47;5013669;28;20037;-49
2022/08/31 05:39:37;;;;;;;4.88;1.90;;;;;;;15.87;68.23;102025.03;5015046;28;20105;-49
2022/08/31 05:42:06;;;;;;;3.88;1.98;;;;;;;15.84;68.09;102020.09;5014894;28;20033;-50
2022/08/31 05:44:34;;;;;;;2.20;1.65;;;;;;;15.71;68.27;102027.78;5033559;28;20033;-50
2022/08/31 05:47:05;;;;;;;2.78;1.80;;;;;;;15.60;68.65;102037.09;4999721;28;20041;-48
2022/08/31 05:49:34;;;;;;;3.63;1.60;;;;;;;15.60;68.85;102031.59;4998856;28;20037;-48
2022/08/31 05:52:04;;;;;;;5.57;2.20;;;;;;;15.63;68.36;102025.53;5015429;28;20423;-48
2022/08/31 05:54:34;;;;;;;2.80;1.83;;;;;;;15.77;68.08;102023.94;5015066;28;20045;-49
2022/08/31 05:57:03;;;;;;;5.32;1.70;;;;;;;15.83;67.20;102029.47;4999541;28;20042;-49
2022/08/31 05:59:32;;;;;;;4.38;1.92;;;;;;;15.89;66.98;102029.16;5013871;28;20042;-49
2022/08/31 06:02:00;;;;;;;3.15;1.75;;;;;;;15.88;66.61;102032.22;4998578;28;20045;-48
2022/08/31 06:04:32;;;;;;;2.45;1.55;;;;;;;15.92;66.46;102030.53;5014436;28;20403;-48
2022/08/31 06:07:00;;;;;;;1.95;1.30;;;;;;;15.74;67.01;102038.22;5031393;28;20096;-48
2022/08/31 06:09:37;;;;;;;4.13;1.70;;;;;;;15.81;66.63;102031.66;5014115;28;20400;-49
2022/08/31 06:12:07;;;;;;;3.65;1.88;;;;;;;15.87;66.42;102038.78;5015211;28;20500;-48
2022/08/31 06:14:35;;;;;;;5.88;2.22;;;;;;;15.75;66.36;102039.91;4999405;28;20488;-49
2022/08/31 06:17:05;;;;;;;4.82;1.90;;;;;;;15.73;66.52;102039.34;5015662;28;20037;-48
2022/08/31 06:19:37;;;;;;;5.53;2.00;;;;;;;15.75;65.79;102039.91;5014849;28;20034;-49
2022/08/31 06:22:06;;;;;;;4.80;2.22;;;;;;;15.80;65.67;102036.31;5016329;28;20057;-52
2022/08/31 06:24:35;;;;;;;6.22;2.10;;;;;;;15.78;65.65;102038.53;4324500;28;10000415;-47
2022/08/31 06:27:04;;;;;;;3.50;1.73;;;;;;;15.77;65.92;102040.44;5028385;28;20041;-50
2022/08/31 06:29:34;;;;;;;8.43;2.00;;;;;;;15.80;65.71;102046.47;5012518;28;20042;-48
2022/08/31 06:32:08;;;;;;;7.22;1.95;;;;;;;15.77;65.34;102048.66;4997128;28;20084;-49
2022/08/31 06:34:47;;;;;;;2.42;1.65;;;;;;;15.82;65.66;102041.53;5022879;28;20125;-50
2022/08/31 06:37:33;;;;;;;2.55;1.80;;;;;;;15.73;65.67;102058.59;5038101;28;20038;-54
2022/08/31 06:40:07;;;;;;;2.83;1.40;;;;;;;15.72;65.83;102050.59;5024521;28;20092;-51
2022/08/31 06:42:45;;;;;;;2.90;1.95;;;;;;;15.81;65.38;102059.97;5015469;28;20045;-52
2022/08/31 06:45:32;;;;;;;4.57;1.73;;;;;;;15.87;65.22;102058.03;5020587;28;20041;-56
2022/08/31 06:48:18;;;;;;;2.65;1.83;;;;;;;15.90;65.01;102063.00;5031710;28;20045;-54
2022/08/31 06:50:55;;;;;;;2.08;1.45;;;;;;;15.87;65.15;102060.78;5032429;28;20601;-52
2022/08/31 06:53:24;;;;;;;2.30;1.73;;;;;;;15.83;65.14;102056.94;5015205;28;20041;-53
2022/08/31 06:56:17;;;;;;;3.00;2.13;;;;;;;15.90;64.95;102063.00;5016914;28;20554;-52
2022/08/31 06:59:08;;;;;;;5.18;2.30;;;;;;;15.79;65.00;102072.31;4987197;28;20412;-51
2022/08/31 07:01:50;;;;;;;5.13;2.35;;;;;;;15.83;65.51;102079.75;5002777;28;20061;-52
2022/08/31 07:04:23;;;;;;;5.00;1.92;;;;;;;15.92;64.88;102080.03;5035270;28;20057;-50
2022/08/31 07:06:50;;;;;;;4.47;2.35;;;;;;;16.00;64.89;102082.25;5018299;28;20515;-50
2022/08/31 07:09:18;;;;;;;6.18;2.67;;;;;;;15.96;64.97;102076.44;5044502;28;20056;-50
2022/08/31 07:11:51;;;;;;;4.82;1.90;;;;;;;16.01;64.52;102075.63;5035098;28;20072;-52
2022/08/31 07:14:24;;;;;;;4.15;1.85;;;;;;;16.01;64.67;102085.81;5022758;28;20052;-48
2022/08/31 07:16:55;;;;;;;5.72;2.58;;;;;;;16.01;65.06;102083.88;5035535;28;20037;-49
2022/08/31 07:19:24;;;;;;;4.93;2.08;;;;;;;16.05;65.08;102082.25;5026007;28;20055;-50
2022/08/31 07:21:55;;;;;;;13.13;4.03;;;;;;;16.10;65.15;102087.75;5001561;28;20044;-51
2022/08/31 07:24:29;;;;;;;7.38;2.80;;;;;;;16.22;64.93;102090.22;5017289;28;20095;-50
2022/08/31 07:26:59;;;;;;;7.45;2.88;;;;;;;16.25;64.73;102091.59;5018024;28;20396;-51
2022/08/31 07:29:36;;;;;;;8.83;2.33;;;;;;;16.15;64.95;102093.25;4994122;28;20049;-50
2022/08/31 07:32:11;;;;;;;6.45;3.00;;;;;;;16.23;65.04;102091.03;5015990;28;20045;-50
2022/08/31 07:34:39;;;;;;;4.07;2.30;;;;;;;16.23;65.20;102091.03;5017000;28;20412;-50
2022/08/31 07:42:55;;;;;;;7.45;2.28;;;;;;;16.31;65.52;102082.25;5001584;28;20045;-50
2022/08/31 07:45:23;;;;;;;3.10;2.10;;;;;;;16.35;65.37;102086.09;4984284;28;20041;-51
2022/08/31 07:47:59;;;;;;;7.05;2.50;;;;;;;16.37;65.50;102095.72;5017169;28;20045;-51
2022/08/31 07:50:45;;;;;;;6.68;2.10;;;;;;;16.50;65.22;102088.84;5004868;28;20037;-50
2022/08/31 07:53:45;;;;;;;6.57;2.60;;;;;;;16.66;64.98;102083.31;5017541;28;20060;-50
2022/08/31 07:56:33;;;;;;;3.67;2.20;;;;;;;16.64;65.24;102088.25;5000732;28;20045;-50
2022/08/31 07:59:11;;;;;;;4.70;2.00;;;;;;;16.65;65.01;102089.91;5025280;28;20057;-53
2022/08/31 08:01:40;;;;;;;6.78;2.65;;;;;;;16.70;65.29;102093.47;5001069;28;20360;-54
2022/08/31 08:04:18;;;;;;;5.82;2.10;;;;;;;16.72;64.96;102096.78;5001109;28;20045;-50
2022/08/31 08:07:06;;;;;;;4.30;2.42;;;;;;;16.72;64.91;102107.78;5031141;28;20136;-51
2022/08/31 08:09:54;;;;;;;7.63;2.75;;;;;;;16.70;65.00;102103.66;5020577;28;20443;-51
2022/08/31 08:12:42;;;;;;;9.82;2.63;;;;;;;16.75;64.98;102112.72;5034680;28;20045;-51
2022/08/31 08:15:34;;;;;;;4.93;2.35;;;;;;;16.86;64.68;102107.22;5020031;28;20057;-51
2022/08/31 08:18:34;;;;;;;6.30;2.50;;;;;;;16.86;64.50;102108.06;4995567;28;20099;-50
2022/08/31 08:21:03;;;;;;;3.95;2.08;;;;;;;16.88;64.43;102105.84;5017349;28;20041;-51
2022/08/31 08:23:31;;;;;;;4.45;2.25;;;;;;;16.97;64.49;102106.94;5017606;28;20047;-49
2022/08/31 08:26:10;;;;;;;9.60;2.92;;;;;;;16.97;64.52;102106.09;5032654;28;20045;-50
2022/08/31 08:29:08;;;;;;;5.78;2.10;;;;;;;16.99;64.78;102107.47;5015187;28;20087;-50
2022/08/31 08:31:42;;;;;;;5.47;2.38;;;;;;;17.04;64.53;102109.38;5016482;28;20068;-50
2022/08/31 08:34:10;;;;;;;4.50;2.20;;;;;;;17.02;64.74;102106.91;5016446;28;20538;-51
2022/08/31 08:36:39;;;;;;;5.78;2.65;;;;;;;17.10;64.68;102108.28;5016985;28;20038;-51
2022/08/31 08:39:08;;;;;;;4.05;2.70;;;;;;;17.12;64.96;102116.25;5016637;28;20105;-53
2022/08/31 08:41:41;;;;;;;7.00;2.50;;;;;;;17.21;64.81;102115.38;5016536;28;20045;-50
2022/08/31 08:44:12;;;;;;;6.13;2.30;;;;;;;17.31;64.63;102105.44;5017401;28;20403;-50
2022/08/31 08:46:52;;;;;;;7.63;2.90;;;;;;;17.37;64.51;102107.88;5000948;28;20037;-47
2022/08/31 08:49:26;;;;;;;6.15;2.60;;;;;;;17.39;64.46;102099.31;5016595;28;20042;-52
2022/08/31 08:52:02;;;;;;;4.80;2.67;;;;;;;17.39;64.83;102102.06;5016355;28;20038;-51
2022/08/31 08:54:35;;;;;;;8.43;2.65;;;;;;;17.51;64.61;102101.75;5021945;28;20085;-50
2022/08/31 08:57:22;;;;;;;4.43;2.90;;;;;;;17.51;64.24;102102.59;5017728;28;20443;-50
2022/08/31 08:59:55;;;;;;;5.72;2.17;;;;;;;17.55;64.45;102097.31;4997828;28;20046;-50
2022/08/31 09:02:46;;;;;;;4.15;2.35;;;;;;;17.59;64.29;102090.97;4996156;28;20038;-50
2022/08/31 09:05:43;;;;;;;6.22;2.40;;;;;;;17.67;64.36;102092.28;5013313;28;20062;-51
2022/08/31 09:08:46;;;;;;;6.18;2.40;;;;;;;17.76;64.57;102089.78;4996343;28;20052;-54
2022/08/31 09:11:21;;;;;;;6.05;2.75;;;;;;;17.81;64.80;102098.03;4993167;28;20489;-51
2022/08/31 09:14:21;;;;;;;8.20;2.72;;;;;;;17.84;64.96;102095.50;4997693;28;20079;-50
2022/08/31 09:17:01;;;;;;;10.40;3.00;;;;;;;17.92;64.62;102093.25;4975503;28;20531;-51
2022/08/31 09:19:57;;;;;;;11.00;2.85;;;;;;;17.96;64.99;102097.09;4996581;28;20515;-51
2022/08/31 09:22:17;;;;;;;5.07;2.97;;;;;;;17.99;64.74;102091.84;4995640;28;20045;-51
2022/08/31 09:24:51;;;;;;;9.82;2.75;;;;;;;18.03;65.17;102094.84;4999052;28;20033;-53
2022/08/31 09:27:44;;;;;;;5.88;2.83;;;;;;;18.06;64.94;102091.50;5013864;28;20030;-50
2022/08/31 09:30:34;;;;;;;6.13;2.22;;;;;;;18.18;64.91;102099.41;5013188;28;20045;-50
2022/08/31 09:33:03;;;;;;;6.43;2.90;;;;;;;18.19;64.69;102090.84;5000793;28;20496;-52
2022/08/31 09:35:40;;;;;;;10.25;3.58;;;;;;;18.20;64.84;102092.50;4995228;28;20050;-50
2022/08/31 09:38:25;;;;;;;6.95;3.03;;;;;;;18.33;64.58;102088.25;5013307;28;20057;-49
2022/08/31 09:40:53;;;;;;;8.60;3.17;;;;;;;18.43;64.33;102096.44;5013823;28;20099;-50
2022/08/31 09:43:22;;;;;;;4.70;2.80;;;;;;;18.49;64.32;102091.69;4995479;28;20783;-49
2022/08/31 09:46:05;;;;;;;7.28;3.15;;;;;;;18.51;64.32;102090.28;5012455;28;20058;-51
2022/08/31 09:48:57;;;;;;;7.50;2.95;;;;;;;18.60;64.32;102087.72;5007919;28;20049;-52
2022/08/31 09:51:27;;;;;;;7.07;2.80;;;;;;;18.63;64.55;102087.13;5002995;28;20050;-49
2022/08/31 09:56:54;;;;;;;6.53;3.20;;;;;;;18.67;65.26;102093.72;5012995;28;20053;-51
2022/08/31 09:59:36;;;;;;;4.93;2.80;;;;;;;18.73;65.31;102088.97;4995564;28;20378;-51
2022/08/31 10:02:21;;;;;;;9.88;3.40;;;;;;;18.77;65.31;102094.78;5023598;28;20086;-50
2022/08/31 10:05:03;;;;;;;7.10;3.53;;;;;;;18.81;65.14;102090.28;5030287;28;20043;-48
2022/08/31 10:07:46;;;;;;;8.82;3.58;;;;;;;18.87;65.66;102086.38;5014261;28;20037;-51
2022/08/31 10:10:16;;;;;;;21.08;3.70;;;;;;;18.99;65.40;102088.72;5005451;28;20049;-50
2022/08/31 10:12:59;;;;;;;5.75;3.47;;;;;;;19.05;65.02;102080.09;5017022;28;20041;-50
2022/08/31 10:15:36;;;;;;;8.73;3.33;;;;;;;19.09;65.19;102083.06;5032109;28;20420;-51
2022/08/31 10:18:32;;;;;;;9.23;3.20;;;;;;;19.14;65.14;102081.06;5032909;28;20046;-50
2022/08/31 10:21:20;;;;;;;9.30;3.00;;;;;;;19.22;64.92;102078.75;5033682;28;20045;-50
2022/08/31 10:24:27;;;;;;;8.23;3.42;;;;;;;19.26;64.89;102086.16;4321112;28;10020739;-52
2022/08/31 10:27:01;;;;;;;9.15;3.53;;;;;;;19.21;65.15;102060.53;5033067;28;20040;-49
2022/08/31 10:29:35;;;;;;;6.50;3.00;;;;;;;19.20;65.42;102069.97;5034871;28;20082;-52
2022/08/31 10:32:18;;;;;;;8.45;3.20;;;;;;;19.21;65.77;102063.31;5009137;28;20030;-52
2022/08/31 10:35:03;;;;;;;5.45;3.15;;;;;;;19.27;65.24;102070.44;4998872;28;20053;-54
2022/08/31 10:38:07;;;;;;;8.47;3.60;;;;;;;19.42;65.04;102069.41;5030369;28;20045;-51
2022/08/31 10:40:42;;;;;;;6.65;2.97;;;;;;;19.50;64.31;102075.06;5034316;28;20042;-51
2022/08/31 10:43:21;;;;;;;5.90;2.92;;;;;;;19.51;64.38;102062.91;5034289;28;20049;-47
2022/08/31 10:45:51;;;;;;;10.05;3.15;;;;;;;19.54;64.42;102067.00;4986156;28;20045;-49
2022/08/31 10:48:22;;;;;;;8.05;3.08;;;;;;;19.56;64.23;102057.28;5022894;28;20042;-48
2022/08/31 10:51:12;;;;;;;9.07;3.25;;;;;;;19.69;64.05;102057.69;5029059;28;20168;-49
2022/08/31 10:54:23;;;;;;;7.43;2.97;;;;;;;19.73;63.60;102065.09;5036752;28;20049;-51
2022/08/31 10:57:00;;;;;;;6.60;2.88;;;;;;;19.72;63.96;102059.84;5001958;28;20057;-49
2022/08/31 10:59:47;;;;;;;6.40;3.00;;;;;;;19.70;63.97;102065.69;5037686;28;20045;-50
2022/08/31 11:02:26;;;;;;;61.97;5.95;;;;;;;19.75;63.78;102065.63;5030798;28;20107;-49
2022/08/31 11:05:27;;;;;;;7.78;3.30;;;;;;;19.83;63.36;102057.78;5033268;28;20046;-50
2022/08/31 11:08:24;;;;;;;11.15;3.25;;;;;;;19.95;63.19;102058.94;5030864;28;20158;-50
2022/08/31 11:10:54;;;;;;;8.20;3.58;;;;;;;20.11;62.68;102067.81;5015292;28;20054;-50
2022/08/31 11:13:50;;;;;;;6.60;3.10;;;;;;;20.27;62.33;102065.59;5024148;28;20048;-50
2022/08/31 11:16:31;;;;;;;;;;;;;;;20.29;61.95;102057.00;4998535;28;20038;-50
2022/08/31 11:19:06;;;;;;;5.03;3.00;;;;;;;20.33;61.82;102060.81;5015121;28;20397;-50
2022/08/31 11:21:49;;;;;;;8.48;3.00;;;;;;;20.29;61.95;102057.81;5032597;28;20033;-51
2022/08/31 11:24:20;;;;;;;5.35;2.72;;;;;;;20.26;62.01;102055.66;5032167;28;20500;-50
2022/08/31 11:27:18;;;;;;;5.75;2.97;;;;;;;20.27;61.80;102053.72;5031304;28;20049;-50
2022/08/31 11:29:55;;;;;;;7.15;3.42;;;;;;;20.39;61.46;102052.09;5014826;28;20041;-49
2022/08/31 11:32:29;;;;;;;8.88;3.60;;;;;;;20.51;60.93;102045.25;5042069;28;20045;-47
2022/08/31 11:34:59;;;;;;;8.18;3.30;;;;;;;20.50;60.93;102046.38;5013263;28;20045;-49
2022/08/31 11:37:49;;;;;;;7.05;3.20;;;;;;;20.52;60.63;102049.66;5002457;28;20068;-55
2022/08/31 11:40:41;;;;;;;6.78;3.00;;;;;;;20.50;60.88;102040.84;5034418;28;20041;-51
2022/08/31 11:43:14;;;;;;;4.80;2.50;;;;;;;20.44;61.25;102053.94;5031869;28;20053;-52
2022/08/31 11:45:42;;;;;;;7.18;3.10;;;;;;;20.50;60.56;102040.84;5013122;28;20060;-54
2022/08/31 11:48:52;;;;;;;7.28;3.20;;;;;;;20.54;60.62;102036.31;5030405;28;20102;-51
2022/08/31 11:51:40;;;;;;;8.70;3.28;;;;;;;20.58;60.34;102023.53;5004971;28;20065;-51
2022/08/31 11:54:25;;;;;;;5.57;2.97;;;;;;;20.55;60.22;102027.75;5031681;28;20052;-51
2022/08/31 11:56:55;;;;;;;6.20;2.85;;;;;;;20.51;60.64;102025.88;5032363;28;20500;-54
2022/08/31 11:59:30;;;;;;;7.13;2.95;;;;;;;20.47;60.77;102025.66;5032049;28;20094;-51
2022/08/31 12:02:24;;;;;;;5.70;2.90;;;;;;;20.52;60.60;102025.56;5030415;28;20062;-55
2022/08/31 12:04:56;;;;;;;8.98;2.92;;;;;;;20.56;60.76;102025.78;5023308;28;20495;-52
2022/08/31 12:07:33;;;;;;;7.38;2.60;;;;;;;20.62;60.45;102022.63;5012956;28;20448;-51
2022/08/31 12:10:13;;;;;;;5.72;2.90;;;;;;;20.61;60.25;102015.47;5020068;28;20037;-52
2022/08/31 12:13:08;;;;;;;8.35;2.60;;;;;;;20.61;60.63;102020.16;5032476;28;20041;-50
2022/08/31 12:16:02;;;;;;;12.15;3.00;;;;;;;20.69;60.12;102018.63;5031324;28;20111;-53